sensor_id;sensor_type;location;lat;lon;timestamp;pressure;altitude;pressure_sealevel;temperature;humidity
11987;BME280;6053;51.382;6.768;2024-03-06T00:00:11;101559.94;;;13.13;54.81
11987;BME280;6053;51.382;6.768;2024-03-06T00:02:41;101553.72;;;13.09;54.82
11987;BME280;6053;51.382;6.768;2024-03-06T00:05:09;101564.28;;;13.14;54.62
11987;BME280;6053;51.382;6.768;2024-03-06T00:07:36;101562.38;;;13.11;54.90
11987;BME280;6053;51.382;6.768;2024-03-06T00:10:04;101563.44;;;13.17;54.70
11987;BME280;6053;51.382;6.768;2024-03-06T00:12:34;101572.13;;;13.19;54.32
11987;BME280;6053;51.382;6.768;2024-03-06T00:15:01;101569.81;;;13.14;54.47
11987;BME280;6053;51.382;6.768;2024-03-06T00:17:35;101578.16;;;13.14;54.44
11987;BME280;6053;51.382;6.768;2024-03-06T00:20:04;101575.00;;;13.12;54.55
11987;BME280;6053;51.382;6.768;2024-03-06T00:22:31;101574.69;;;13.10;54.63
11987;BME280;6053;51.382;6.768;2024-03-06T00:25:02;101577.09;;;13.08;54.57
11987;BME280;6053;51.382;6.768;2024-03-06T00:27:29;101578.75;;;13.05;54.68
11987;BME280;6053;51.382;6.768;2024-03-06T00:30:00;101572.13;;;12.99;54.71
11987;BME280;6053;51.382;6.768;2024-03-06T00:32:27;101582.50;;;12.96;54.67
11987;BME280;6053;51.382;6.768;2024-03-06T00:34:55;101582.03;;;13.00;54.61
11987;BME280;6053;51.382;6.768;2024-03-06T00:37:25;101589.47;;;13.03;54.62
11987;BME280;6053;51.382;6.768;2024-03-06T00:39:52;101586.78;;;13.00;54.70
11987;BME280;6053;51.382;6.768;2024-03-06T00:42:22;101586.41;;;12.98;54.58
11987;BME280;6053;51.382;6.768;2024-03-06T00:44:52;101589.69;;;12.93;54.85
11987;BME280;6053;51.382;6.768;2024-03-06T00:47:22;101599.16;;;12.96;54.85
11987;BME280;6053;51.382;6.768;2024-03-06T00:49:52;101590.53;;;12.90;54.78
11987;BME280;6053;51.382;6.768;2024-03-06T00:52:19;101598.38;;;12.95;54.64
11987;BME280;6053;51.382;6.768;2024-03-06T00:54:49;101597.66;;;12.91;54.65
11987;BME280;6053;51.382;6.768;2024-03-06T00:57:19;101598.53;;;12.88;54.83
11987;BME280;6053;51.382;6.768;2024-03-06T00:59:49;101606.34;;;12.93;54.48
11987;BME280;6053;51.382;6.768;2024-03-06T01:02:22;101609.19;;;12.90;54.57
11987;BME280;6053;51.382;6.768;2024-03-06T01:04:56;101615.50;;;12.90;54.62
11987;BME280;6053;51.382;6.768;2024-03-06T01:07:26;101614.00;;;12.86;54.70
11987;BME280;6053;51.382;6.768;2024-03-06T01:09:56;101621.66;;;12.78;54.89
11987;BME280;6053;51.382;6.768;2024-03-06T01:12:23;101628.69;;;12.83;54.75
11987;BME280;6053;51.382;6.768;2024-03-06T01:14:56;101629.41;;;12.87;54.60
11987;BME280;6053;51.382;6.768;2024-03-06T01:17:29;101625.84;;;12.86;54.62
11987;BME280;6053;51.382;6.768;2024-03-06T01:19:59;101627.13;;;12.82;54.46
11987;BME280;6053;51.382;6.768;2024-03-06T01:22:28;101623.91;;;12.83;54.52
11987;BME280;6053;51.382;6.768;2024-03-06T01:24:58;101625.50;;;12.84;54.55
11987;BME280;6053;51.382;6.768;2024-03-06T01:27:31;101634.31;;;12.79;54.56
11987;BME280;6053;51.382;6.768;2024-03-06T01:29:58;101638.22;;;12.82;54.44
11987;BME280;6053;51.382;6.768;2024-03-06T01:32:31;101639.34;;;12.84;54.33
11987;BME280;6053;51.382;6.768;2024-03-06T01:35:15;101643.69;;;12.85;54.52
11987;BME280;6053;51.382;6.768;2024-03-06T01:37:48;101641.00;;;12.82;54.49
11987;BME280;6053;51.382;6.768;2024-03-06T01:40:18;101643.84;;;12.78;54.52
11987;BME280;6053;51.382;6.768;2024-03-06T01:42:46;101640.19;;;12.62;54.90
11987;BME280;6053;51.382;6.768;2024-03-06T01:45:24;101642.66;;;12.56;54.96
11987;BME280;6053;51.382;6.768;2024-03-06T01:47:52;101649.72;;;12.61;55.12
11987;BME280;6053;51.382;6.768;2024-03-06T01:50:22;101648.44;;;12.65;54.97
11987;BME280;6053;51.382;6.768;2024-03-06T01:52:52;101642.59;;;12.60;54.94
11987;BME280;6053;51.382;6.768;2024-03-06T01:55:22;101644.25;;;12.57;55.12
11987;BME280;6053;51.382;6.768;2024-03-06T01:57:51;101650.06;;;12.63;54.93
11987;BME280;6053;51.382;6.768;2024-03-06T02:00:19;101636.22;;;12.63;54.73
11987;BME280;6053;51.382;6.768;2024-03-06T02:02:53;101642.09;;;12.65;54.85
11987;BME280;6053;51.382;6.768;2024-03-06T02:05:20;101637.72;;;12.67;54.64
11987;BME280;6053;51.382;6.768;2024-03-06T02:07:51;101642.47;;;12.67;54.68
11987;BME280;6053;51.382;6.768;2024-03-06T02:10:23;101644.88;;;12.65;54.54
11987;BME280;6053;51.382;6.768;2024-03-06T02:12:56;101643.75;;;12.62;54.75
11987;BME280;6053;51.382;6.768;2024-03-06T02:15:27;101645.81;;;12.58;54.63
11987;BME280;6053;51.382;6.768;2024-03-06T02:18:04;101650.47;;;12.61;54.59
11987;BME280;6053;51.382;6.768;2024-03-06T02:20:32;101643.75;;;12.62;54.50
11987;BME280;6053;51.382;6.768;2024-03-06T02:23:00;101645.81;;;12.58;54.67
11987;BME280;6053;51.382;6.768;2024-03-06T02:25:27;101644.75;;;12.52;54.68
11987;BME280;6053;51.382;6.768;2024-03-06T02:28:00;101646.63;;;12.55;54.64
11987;BME280;6053;51.382;6.768;2024-03-06T02:30:27;101651.03;;;12.53;54.77
11987;BME280;6053;51.382;6.768;2024-03-06T02:33:02;101639.97;;;12.53;54.64
11987;BME280;6053;51.382;6.768;2024-03-06T02:35:31;101637.69;;;12.48;54.75
11987;BME280;6053;51.382;6.768;2024-03-06T02:38:03;101640.41;;;12.51;54.55
11987;BME280;6053;51.382;6.768;2024-03-06T02:40:31;101641.66;;;12.47;54.77
11987;BME280;6053;51.382;6.768;2024-03-06T02:43:07;101649.59;;;12.45;54.63
11987;BME280;6053;51.382;6.768;2024-03-06T02:45:33;101642.81;;;12.49;54.53
11987;BME280;6053;51.382;6.768;2024-03-06T02:48:00;101638.09;;;12.46;54.60
11987;BME280;6053;51.382;6.768;2024-03-06T02:50:29;101642.44;;;12.47;54.59
11987;BME280;6053;51.382;6.768;2024-03-06T02:52:59;101646.00;;;12.48;54.45
11987;BME280;6053;51.382;6.768;2024-03-06T02:55:35;101644.94;;;12.42;54.60
11987;BME280;6053;51.382;6.768;2024-03-06T02:58:02;101647.34;;;12.40;54.62
11987;BME280;6053;51.382;6.768;2024-03-06T03:00:29;101648.91;;;12.41;54.63
11987;BME280;6053;51.382;6.768;2024-03-06T03:03:03;101650.03;;;12.43;54.45
11987;BME280;6053;51.382;6.768;2024-03-06T03:05:33;101649.25;;;12.43;54.36
11987;BME280;6053;51.382;6.768;2024-03-06T03:08:06;101646.91;;;12.41;54.32
11987;BME280;6053;51.382;6.768;2024-03-06T03:10:33;101649.78;;;12.34;54.50
11987;BME280;6053;51.382;6.768;2024-03-06T03:13:03;101647.75;;;12.38;54.39
11987;BME280;6053;51.382;6.768;2024-03-06T03:15:34;101652.88;;;12.40;54.36
11987;BME280;6053;51.382;6.768;2024-03-06T03:18:01;101656.91;;;12.35;54.55
11987;BME280;6053;51.382;6.768;2024-03-06T03:20:28;101655.84;;;12.29;54.62
11987;BME280;6053;51.382;6.768;2024-03-06T03:22:57;101656.66;;;12.26;54.73
11987;BME280;6053;51.382;6.768;2024-03-06T03:25:30;101658.97;;;12.31;54.44
11987;BME280;6053;51.382;6.768;2024-03-06T03:27:57;101650.28;;;12.29;54.53
11987;BME280;6053;51.382;6.768;2024-03-06T03:30:37;101662.63;;;12.25;54.58
11987;BME280;6053;51.382;6.768;2024-03-06T03:33:10;101655.84;;;12.29;54.39
11987;BME280;6053;51.382;6.768;2024-03-06T03:35:39;101659.44;;;12.26;54.48
11987;BME280;6053;51.382;6.768;2024-03-06T03:38:07;101662.19;;;12.26;54.36
11987;BME280;6053;51.382;6.768;2024-03-06T03:40:52;101663.78;;;12.27;54.38
11987;BME280;6053;51.382;6.768;2024-03-06T03:43:28;101671.72;;;12.25;54.31
11987;BME280;6053;51.382;6.768;2024-03-06T03:45:55;101669.81;;;12.22;54.38
11987;BME280;6053;51.382;6.768;2024-03-06T03:48:23;101676.91;;;12.23;54.34
11987;BME280;6053;51.382;6.768;2024-03-06T03:50:50;101675.41;;;12.19;54.43
11987;BME280;6053;51.382;6.768;2024-03-06T03:53:17;101680.13;;;12.18;54.40
11987;BME280;6053;51.382;6.768;2024-03-06T03:55:47;101686.22;;;12.10;54.52
11987;BME280;6053;51.382;6.768;2024-03-06T03:58:15;101683.41;;;12.14;54.36
11987;BME280;6053;51.382;6.768;2024-03-06T04:00:43;101687.63;;;12.21;54.23
11987;BME280;6053;51.382;6.768;2024-03-06T04:03:10;101680.13;;;12.18;54.30
11987;BME280;6053;51.382;6.768;2024-03-06T04:05:40;101684.84;;;12.21;54.10
11987;BME280;6053;51.382;6.768;2024-03-06T04:08:11;101691.59;;;12.20;54.01
11987;BME280;6053;51.382;6.768;2024-03-06T04:10:42;101692.53;;;12.11;54.30
11987;BME280;6053;51.382;6.768;2024-03-06T04:13:11;101696.09;;;12.11;54.41
11987;BME280;6053;51.382;6.768;2024-03-06T04:15:42;101696.53;;;12.10;54.30
11987;BME280;6053;51.382;6.768;2024-03-06T04:18:12;101700.44;;;12.12;54.14
11987;BME280;6053;51.382;6.768;2024-03-06T04:20:40;101702.41;;;12.12;54.12
11987;BME280;6053;51.382;6.768;2024-03-06T04:23:07;101703.97;;;12.13;54.11
11987;BME280;6053;51.382;6.768;2024-03-06T04:25:40;101703.97;;;12.13;53.99
11987;BME280;6053;51.382;6.768;2024-03-06T04:28:07;101701.63;;;12.11;54.11
11987;BME280;6053;51.382;6.768;2024-03-06T04:30:35;101709.13;;;12.11;54.13
11987;BME280;6053;51.382;6.768;2024-03-06T04:33:03;101710.72;;;12.12;54.05
11987;BME280;6053;51.382;6.768;2024-03-06T04:35:40;101717.44;;;12.11;54.02
11987;BME280;6053;51.382;6.768;2024-03-06T04:38:10;101722.63;;;12.09;54.02
11987;BME280;6053;51.382;6.768;2024-03-06T04:40:40;101715.97;;;12.06;54.10
11987;BME280;6053;51.382;6.768;2024-03-06T04:43:12;101726.59;;;12.08;54.06
11987;BME280;6053;51.382;6.768;2024-03-06T04:45:39;101730.16;;;12.08;53.98
11987;BME280;6053;51.382;6.768;2024-03-06T04:48:10;101737.75;;;12.04;54.18
11987;BME280;6053;51.382;6.768;2024-03-06T04:50:44;101738.09;;;12.06;54.02
11987;BME280;6053;51.382;6.768;2024-03-06T04:53:11;101741.34;;;12.01;54.20
11987;BME280;6053;51.382;6.768;2024-03-06T04:55:39;101747.28;;;12.00;54.19
11987;BME280;6053;51.382;6.768;2024-03-06T04:58:09;101752.81;;;12.00;54.11
11987;BME280;6053;51.382;6.768;2024-03-06T05:00:42;101749.38;;;11.92;54.24
11987;BME280;6053;51.382;6.768;2024-03-06T05:03:13;101756.91;;;11.92;54.32
11987;BME280;6053;51.382;6.768;2024-03-06T05:06:00;101743.81;;;11.92;54.34
11987;BME280;6053;51.382;6.768;2024-03-06T05:08:45;101748.97;;;11.94;54.27
11987;BME280;6053;51.382;6.768;2024-03-06T05:11:31;101749.78;;;11.91;54.30
11987;BME280;6053;51.382;6.768;2024-03-06T05:14:24;101760.50;;;11.89;54.34
11987;BME280;6053;51.382;6.768;2024-03-06T05:17:09;101763.34;;;11.82;54.54
11987;BME280;6053;51.382;6.768;2024-03-06T05:19:58;101761.81;;;11.81;54.53
11987;BME280;6053;51.382;6.768;2024-03-06T05:22:47;101756.28;;;11.81;54.54
11987;BME280;6053;51.382;6.768;2024-03-06T05:25:32;101771.25;;;11.83;54.36
11987;BME280;6053;51.382;6.768;2024-03-06T05:28:23;101776.00;;;11.83;54.34
11987;BME280;6053;51.382;6.768;2024-03-06T05:31:17;101784.31;;;11.83;54.26
11987;BME280;6053;51.382;6.768;2024-03-06T05:34:03;101780.75;;;11.82;54.22
11987;BME280;6053;51.382;6.768;2024-03-06T05:36:53;101783.53;;;11.82;54.15
11987;BME280;6053;51.382;6.768;2024-03-06T05:39:42;101785.91;;;11.80;54.18
11987;BME280;6053;51.382;6.768;2024-03-06T05:42:27;101785.91;;;11.80;54.10
11987;BME280;6053;51.382;6.768;2024-03-06T05:45:13;101795.41;;;11.79;54.11
11987;BME280;6053;51.382;6.768;2024-03-06T05:47:58;101806.50;;;11.79;54.03
11987;BME280;6053;51.382;6.768;2024-03-06T05:50:46;101797.41;;;11.79;54.19
11987;BME280;6053;51.382;6.768;2024-03-06T05:53:36;101810.88;;;11.77;54.05
11987;BME280;6053;51.382;6.768;2024-03-06T05:56:25;101807.28;;;11.80;53.88
11987;BME280;6053;51.382;6.768;2024-03-06T05:59:10;101817.19;;;11.77;54.06
11987;BME280;6053;51.382;6.768;2024-03-06T06:01:39;101825.09;;;11.79;53.92
11987;BME280;6053;51.382;6.768;2024-03-06T06:04:09;101818.78;;;11.75;54.08
11987;BME280;6053;51.382;6.768;2024-03-06T06:06:36;101823.53;;;11.78;53.84
11987;BME280;6053;51.382;6.768;2024-03-06T06:09:04;101823.94;;;11.76;53.91
11987;BME280;6053;51.382;6.768;2024-03-06T06:11:35;101825.53;;;11.74;54.06
11987;BME280;6053;51.382;6.768;2024-03-06T06:14:05;101823.97;;;11.73;53.93
11987;BME280;6053;51.382;6.768;2024-03-06T06:16:37;101833.09;;;11.70;54.09
11987;BME280;6053;51.382;6.768;2024-03-06T06:19:04;101829.09;;;11.74;53.90
11987;BME280;6053;51.382;6.768;2024-03-06T06:21:34;101840.16;;;11.74;53.81
11987;BME280;6053;51.382;6.768;2024-03-06T06:24:07;101838.59;;;11.73;53.84
11987;BME280;6053;51.382;6.768;2024-03-06T06:26:37;101843.78;;;11.68;53.97
11987;BME280;6053;51.382;6.768;2024-03-06T06:29:07;101856.72;;;11.78;53.81
11987;BME280;6053;51.382;6.768;2024-03-06T06:31:43;101860.66;;;11.80;53.63
11987;BME280;6053;51.382;6.768;2024-03-06T06:34:10;101861.06;;;11.79;53.55
11987;BME280;6053;51.382;6.768;2024-03-06T06:36:38;101867.84;;;11.74;53.93
11987;BME280;6053;51.382;6.768;2024-03-06T06:39:11;101862.25;;;11.78;53.63
11987;BME280;6053;51.382;6.768;2024-03-06T06:41:39;101878.06;;;11.81;53.38
11987;BME280;6053;51.382;6.768;2024-03-06T06:44:06;101879.72;;;11.71;54.05
11987;BME280;6053;51.382;6.768;2024-03-06T06:46:33;101881.25;;;11.76;53.92
11987;BME280;6053;51.382;6.768;2024-03-06T06:49:06;101873.34;;;11.78;53.67
11987;BME280;6053;51.382;6.768;2024-03-06T06:51:33;101876.44;;;11.83;53.68
11987;BME280;6053;51.382;6.768;2024-03-06T06:54:00;101882.31;;;11.85;53.52
11987;BME280;6053;51.382;6.768;2024-03-06T06:56:32;101883.16;;;11.82;53.60
11987;BME280;6053;51.382;6.768;2024-03-06T06:59:02;101885.16;;;11.78;53.75
11987;BME280;6053;51.382;6.768;2024-03-06T07:01:31;101895.00;;;11.83;53.59
11987;BME280;6053;51.382;6.768;2024-03-06T07:03:59;101894.56;;;11.88;53.64
11987;BME280;6053;51.382;6.768;2024-03-06T07:06:32;101897.66;;;11.93;53.45
11987;BME280;6053;51.382;6.768;2024-03-06T07:08:59;101890.66;;;11.82;53.85
11987;BME280;6053;51.382;6.768;2024-03-06T07:11:26;101895.84;;;11.80;53.81
11987;BME280;6053;51.382;6.768;2024-03-06T07:13:56;101908.84;;;11.83;53.64
11987;BME280;6053;51.382;6.768;2024-03-06T07:16:25;101902.91;;;11.84;53.79
11987;BME280;6053;51.382;6.768;2024-03-06T07:19:04;101916.72;;;11.88;53.82
11987;BME280;6053;51.382;6.768;2024-03-06T07:21:31;101911.19;;;11.88;53.63
11987;BME280;6053;51.382;6.768;2024-03-06T07:23:58;101918.19;;;11.96;53.47
11987;BME280;6053;51.382;6.768;2024-03-06T07:26:29;101914.13;;;12.04;53.28
11987;BME280;6053;51.382;6.768;2024-03-06T07:28:58;101916.41;;;12.12;52.83
11987;BME280;6053;51.382;6.768;2024-03-06T07:31:25;101922.31;;;12.14;53.04
11987;BME280;6053;51.382;6.768;2024-03-06T07:33:52;101923.41;;;12.23;52.89
11987;BME280;6053;51.382;6.768;2024-03-06T07:36:31;101924.72;;;12.42;52.32
11987;BME280;6053;51.382;6.768;2024-03-06T07:38:58;101929.38;;;12.48;52.01
11987;BME280;6053;51.382;6.768;2024-03-06T07:41:25;101926.22;;;12.46;52.03
11987;BME280;6053;51.382;6.768;2024-03-06T07:43:55;101927.56;;;12.38;52.46
11987;BME280;6053;51.382;6.768;2024-03-06T07:46:40;101932.66;;;12.40;52.43
11987;BME280;6053;51.382;6.768;2024-03-06T07:49:09;101932.34;;;12.34;52.55
11987;BME280;6053;51.382;6.768;2024-03-06T07:51:45;101938.22;;;12.40;52.43
11987;BME280;6053;51.382;6.768;2024-03-06T07:54:18;101943.75;;;12.40;52.53
11987;BME280;6053;51.382;6.768;2024-03-06T07:56:53;101946.09;;;12.41;52.74
11987;BME280;6053;51.382;6.768;2024-03-06T07:59:23;101937.00;;;12.41;52.66
11987;BME280;6053;51.382;6.768;2024-03-06T08:01:50;101947.34;;;12.04;53.90
11987;BME280;6053;51.382;6.768;2024-03-06T08:04:18;101952.69;;;12.21;53.51
11987;BME280;6053;51.382;6.768;2024-03-06T08:06:45;101951.91;;;12.20;53.41
11987;BME280;6053;51.382;6.768;2024-03-06T08:09:13;101954.22;;;12.25;53.54
11987;BME280;6053;51.382;6.768;2024-03-06T08:11:46;101950.53;;;12.35;53.09
11987;BME280;6053;51.382;6.768;2024-03-06T08:14:21;101963.00;;;11.84;54.92
11987;BME280;6053;51.382;6.768;2024-03-06T08:16:48;101969.59;;;11.97;54.50
11987;BME280;6053;51.382;6.768;2024-03-06T08:19:26;101968.53;;;11.84;55.18
11987;BME280;6053;51.382;6.768;2024-03-06T08:21:53;101974.47;;;12.19;53.77
11987;BME280;6053;51.382;6.768;2024-03-06T08:24:22;101983.72;;;12.39;53.28
11987;BME280;6053;51.382;6.768;2024-03-06T08:26:50;101974.53;;;12.16;54.09
11987;BME280;6053;51.382;6.768;2024-03-06T08:29:26;101982.91;;;12.42;53.34
11987;BME280;6053;51.382;6.768;2024-03-06T08:31:54;101988.66;;;12.54;52.91
11987;BME280;6053;51.382;6.768;2024-03-06T08:34:25;101985.75;;;12.65;52.66
11987;BME280;6053;51.382;6.768;2024-03-06T08:36:54;101993.75;;;12.59;53.25
11987;BME280;6053;51.382;6.768;2024-03-06T08:39:24;101993.75;;;11.49;56.85
11987;BME280;6053;51.382;6.768;2024-03-06T08:42:09;101999.31;;;10.20;63.74
11987;BME280;6053;51.382;6.768;2024-03-06T08:44:38;102000.91;;;10.00;63.21
11987;BME280;6053;51.382;6.768;2024-03-06T08:47:09;102002.25;;;10.67;60.37
11987;BME280;6053;51.382;6.768;2024-03-06T08:49:39;102005.41;;;10.62;61.78
11987;BME280;6053;51.382;6.768;2024-03-06T08:52:06;102012.31;;;10.16;64.15
11987;BME280;6053;51.382;6.768;2024-03-06T08:54:39;102019.09;;;9.66;65.62
11987;BME280;6053;51.382;6.768;2024-03-06T08:57:08;102019.50;;;10.85;60.06
11987;BME280;6053;51.382;6.768;2024-03-06T08:59:35;102024.16;;;10.16;64.16
11987;BME280;6053;51.382;6.768;2024-03-06T09:02:13;102028.94;;;9.64;67.13
11987;BME280;6053;51.382;6.768;2024-03-06T09:04:41;102024.97;;;9.92;65.73
11987;BME280;6053;51.382;6.768;2024-03-06T09:07:09;102024.22;;;10.88;60.33
11987;BME280;6053;51.382;6.768;2024-03-06T09:09:43;102019.31;;;10.45;62.84
11987;BME280;6053;51.382;6.768;2024-03-06T09:12:11;102030.75;;;10.43;63.23
11987;BME280;6053;51.382;6.768;2024-03-06T09:14:38;102029.94;;;11.21;59.15
11987;BME280;6053;51.382;6.768;2024-03-06T09:17:06;102031.47;;;10.65;62.71
11987;BME280;6053;51.382;6.768;2024-03-06T09:19:35;102038.66;;;10.38;63.51
11987;BME280;6053;51.382;6.768;2024-03-06T09:22:04;102034.41;;;11.01;60.86
11987;BME280;6053;51.382;6.768;2024-03-06T09:24:34;102034.31;;;11.73;57.72
11987;BME280;6053;51.382;6.768;2024-03-06T09:27:05;102036.56;;;11.34;59.84
11987;BME280;6053;51.382;6.768;2024-03-06T09:29:35;102048.59;;;10.14;64.95
11987;BME280;6053;51.382;6.768;2024-03-06T09:32:02;102043.44;;;10.34;63.09
11987;BME280;6053;51.382;6.768;2024-03-06T09:34:33;102049.25;;;11.28;59.46
11987;BME280;6053;51.382;6.768;2024-03-06T09:36:59;102049.38;;;11.68;58.22
11987;BME280;6053;51.382;6.768;2024-03-06T09:39:27;102050.91;;;12.13;56.90
11987;BME280;6053;51.382;6.768;2024-03-06T09:42:00;102054.63;;;11.49;59.99
11987;BME280;6053;51.382;6.768;2024-03-06T09:44:31;102050.94;;;11.12;60.91
11987;BME280;6053;51.382;6.768;2024-03-06T09:47:07;102059.19;;;10.37;64.47
11987;BME280;6053;51.382;6.768;2024-03-06T09:49:40;102058.81;;;11.17;61.31
11987;BME280;6053;51.382;6.768;2024-03-06T09:52:10;102064.38;;;11.67;59.77
11987;BME280;6053;51.382;6.768;2024-03-06T09:54:43;102069.91;;;12.11;56.97
11987;BME280;6053;51.382;6.768;2024-03-06T09:57:10;102064.91;;;12.32;56.41
11987;BME280;6053;51.382;6.768;2024-03-06T09:59:45;102070.53;;;11.85;58.07
11987;BME280;6053;51.382;6.768;2024-03-06T10:02:34;102066.97;;;12.28;56.39
11987;BME280;6053;51.382;6.768;2024-03-06T10:05:04;102066.56;;;12.26;56.44
11987;BME280;6053;51.382;6.768;2024-03-06T10:07:32;102069.22;;;12.37;55.89
11987;BME280;6053;51.382;6.768;2024-03-06T10:10:07;102076.44;;;12.64;55.51
11987;BME280;6053;51.382;6.768;2024-03-06T10:12:36;102079.94;;;12.68;55.46
11987;BME280;6053;51.382;6.768;2024-03-06T10:15:04;102080.66;;;12.42;57.39
11987;BME280;6053;51.382;6.768;2024-03-06T10:17:31;102077.69;;;11.83;58.34
11987;BME280;6053;51.382;6.768;2024-03-06T10:20:01;102084.88;;;12.54;56.17
11987;BME280;6053;51.382;6.768;2024-03-06T10:22:43;102081.22;;;12.27;56.93
11987;BME280;6053;51.382;6.768;2024-03-06T10:25:20;102089.69;;;12.13;58.00
11987;BME280;6053;51.382;6.768;2024-03-06T10:28:04;102077.50;;;12.40;56.97
11987;BME280;6053;51.382;6.768;2024-03-06T10:30:31;102081.03;;;12.78;55.11
11987;BME280;6053;51.382;6.768;2024-03-06T10:33:09;102079.19;;;12.98;54.65
11987;BME280;6053;51.382;6.768;2024-03-06T10:35:37;102086.31;;;13.28;53.55
11987;BME280;6053;51.382;6.768;2024-03-06T10:38:06;102092.59;;;13.02;54.30
11987;BME280;6053;51.382;6.768;2024-03-06T10:40:36;102082.50;;;13.42;53.30
11987;BME280;6053;51.382;6.768;2024-03-06T10:43:04;102087.88;;;13.78;52.14
11987;BME280;6053;51.382;6.768;2024-03-06T10:45:47;102092.44;;;13.66;52.74
11987;BME280;6053;51.382;6.768;2024-03-06T10:48:16;102093.56;;;12.56;57.13
11987;BME280;6053;51.382;6.768;2024-03-06T10:50:45;102095.03;;;12.67;56.26
11987;BME280;6053;51.382;6.768;2024-03-06T10:53:14;102100.22;;;13.25;54.61
11987;BME280;6053;51.382;6.768;2024-03-06T10:55:55;102092.00;;;12.88;56.17
11987;BME280;6053;51.382;6.768;2024-03-06T10:58:23;102096.75;;;12.88;55.66
11987;BME280;6053;51.382;6.768;2024-03-06T11:00:54;102095.91;;;13.96;52.36
11987;BME280;6053;51.382;6.768;2024-03-06T11:03:28;102099.72;;;14.28;51.32
11987;BME280;6053;51.382;6.768;2024-03-06T11:06:05;102098.03;;;13.88;52.79
11987;BME280;6053;51.382;6.768;2024-03-06T11:08:34;102091.63;;;13.69;52.89
11987;BME280;6053;51.382;6.768;2024-03-06T11:11:21;102098.63;;;13.76;52.70
11987;BME280;6053;51.382;6.768;2024-03-06T11:13:49;102095.84;;;13.99;52.06
11987;BME280;6053;51.382;6.768;2024-03-06T11:17:01;102097.06;;;13.75;53.47
11987;BME280;6053;51.382;6.768;2024-03-06T11:19:29;102093.19;;;13.92;52.67
11987;BME280;6053;51.382;6.768;2024-03-06T11:21:56;102101.66;;;14.31;51.69
11987;BME280;6053;51.382;6.768;2024-03-06T11:24:31;102095.47;;;14.82;49.96
11987;BME280;6053;51.382;6.768;2024-03-06T11:27:05;102091.47;;;14.83;51.48
11987;BME280;6053;51.382;6.768;2024-03-06T11:30:11;102087.63;;;13.92;53.47
11987;BME280;6053;51.382;6.768;2024-03-06T11:33:07;102099.19;;;14.14;52.51
11987;BME280;6053;51.382;6.768;2024-03-06T11:35:41;102093.31;;;13.85;53.02
11987;BME280;6053;51.382;6.768;2024-03-06T11:38:11;102095.97;;;13.70;53.41
11987;BME280;6053;51.382;6.768;2024-03-06T11:40:43;102099.09;;;13.94;52.86
11987;BME280;6053;51.382;6.768;2024-03-06T11:43:33;102090.78;;;14.17;52.03
11987;BME280;6053;51.382;6.768;2024-03-06T11:46:11;102098.84;;;13.63;54.54
11987;BME280;6053;51.382;6.768;2024-03-06T11:48:39;102106.44;;;13.32;55.33
11987;BME280;6053;51.382;6.768;2024-03-06T11:51:06;102093.00;;;14.03;52.75
11987;BME280;6053;51.382;6.768;2024-03-06T11:53:34;102099.16;;;13.42;55.70
11987;BME280;6053;51.382;6.768;2024-03-06T11:56:01;102101.03;;;13.22;55.61
11987;BME280;6053;51.382;6.768;2024-03-06T11:58:31;102099.81;;;12.26;57.83
11987;BME280;6053;51.382;6.768;2024-03-06T12:00:58;102097.78;;;13.00;56.19
11987;BME280;6053;51.382;6.768;2024-03-06T12:03:26;102098.38;;;13.15;55.76
11987;BME280;6053;51.382;6.768;2024-03-06T12:05:56;102099.69;;;13.33;54.99
11987;BME280;6053;51.382;6.768;2024-03-06T12:08:23;102096.81;;;13.40;54.61
11987;BME280;6053;51.382;6.768;2024-03-06T12:10:56;102100.91;;;13.81;53.87
11987;BME280;6053;51.382;6.768;2024-03-06T12:13:24;102099.28;;;13.84;53.60
11987;BME280;6053;51.382;6.768;2024-03-06T12:15:56;102096.50;;;13.35;54.19
11987;BME280;6053;51.382;6.768;2024-03-06T12:18:24;102101.00;;;12.96;55.85
11987;BME280;6053;51.382;6.768;2024-03-06T12:20:55;102097.84;;;13.50;54.69
11987;BME280;6053;51.382;6.768;2024-03-06T12:23:24;102104.50;;;13.03;55.65
11987;BME280;6053;51.382;6.768;2024-03-06T12:26:05;102102.50;;;13.03;55.76
11987;BME280;6053;51.382;6.768;2024-03-06T12:28:35;102098.72;;;12.54;54.33
11987;BME280;6053;51.382;6.768;2024-03-06T12:31:12;102101.66;;;12.73;55.28
11987;BME280;6053;51.382;6.768;2024-03-06T12:33:56;102093.97;;;13.17;55.23
11987;BME280;6053;51.382;6.768;2024-03-06T12:36:25;102094.88;;;13.86;53.68
11987;BME280;6053;51.382;6.768;2024-03-06T12:39:03;102093.72;;;13.61;52.08
11987;BME280;6053;51.382;6.768;2024-03-06T12:41:33;102092.16;;;13.83;53.73
11987;BME280;6053;51.382;6.768;2024-03-06T12:44:03;102084.69;;;13.80;51.45
11987;BME280;6053;51.382;6.768;2024-03-06T12:46:30;102088.84;;;13.16;50.20
11987;BME280;6053;51.382;6.768;2024-03-06T12:48:57;102095.06;;;13.23;55.16
11987;BME280;6053;51.382;6.768;2024-03-06T12:51:25;102087.44;;;13.31;54.76
11987;BME280;6053;51.382;6.768;2024-03-06T12:53:51;102090.66;;;13.29;53.93
11987;BME280;6053;51.382;6.768;2024-03-06T12:56:19;102088.38;;;13.21;54.38
11987;BME280;6053;51.382;6.768;2024-03-06T12:58:48;102089.47;;;13.53;54.76
11987;BME280;6053;51.382;6.768;2024-03-06T13:01:15;102088.00;;;13.72;54.09
11987;BME280;6053;51.382;6.768;2024-03-06T13:03:43;102082.28;;;13.56;54.70
11987;BME280;6053;51.382;6.768;2024-03-06T13:06:16;102086.09;;;13.42;54.67
11987;BME280;6053;51.382;6.768;2024-03-06T13:08:43;102077.63;;;13.75;53.99
11987;BME280;6053;51.382;6.768;2024-03-06T13:11:13;102080.53;;;13.69;53.36
11987;BME280;6053;51.382;6.768;2024-03-06T13:13:42;102080.03;;;13.73;53.32
11987;BME280;6053;51.382;6.768;2024-03-06T13:16:12;102083.41;;;13.84;53.59
11987;BME280;6053;51.382;6.768;2024-03-06T13:18:40;102085.56;;;13.51;50.21
11987;BME280;6053;51.382;6.768;2024-03-06T13:21:07;102081.13;;;13.79;53.50
11987;BME280;6053;51.382;6.768;2024-03-06T13:23:34;102083.47;;;14.04;51.21